sensor_id;sensor_type;location;lat;lon;timestamp;pressure;altitude;pressure_sealevel;temperature;humidity
24486;BME280;13449;49.374;8.584;2024-01-27T00:00:50;102520.31;;;0.22;100.00
24486;BME280;13449;49.374;8.584;2024-01-27T00:03:17;102518.59;;;0.16;100.00
24486;BME280;13449;49.374;8.584;2024-01-27T00:05:46;102524.63;;;0.12;100.00
24486;BME280;13449;49.374;8.584;2024-01-27T00:08:13;102529.84;;;0.06;100.00
24486;BME280;13449;49.374;8.584;2024-01-27T00:10:39;102522.94;;;0.02;100.00
24486;BME280;13449;49.374;8.584;2024-01-27T00:13:06;102516.88;;;-0.03;100.00
24486;BME280;13449;49.374;8.584;2024-01-27T00:15:32;102507.38;;;-0.07;100.00
24486;BME280;13449;49.374;8.584;2024-01-27T00:17:59;102514.28;;;-0.09;100.00
24486;BME280;13449;49.374;8.584;2024-01-27T00:20:26;102509.97;;;-0.09;100.00
24486;BME280;13449;49.374;8.584;2024-01-27T00:22:52;102513.44;;;-0.14;100.00
24486;BME280;13449;49.374;8.584;2024-01-27T00:25:19;102519.47;;;-0.15;100.00
24486;BME280;13449;49.374;8.584;2024-01-27T00:27:45;102521.19;;;-0.20;100.00
24486;BME280;13449;49.374;8.584;2024-01-27T00:30:12;102526.34;;;-0.23;100.00
24486;BME280;13449;49.374;8.584;2024-01-27T00:32:39;102535.00;;;-0.27;100.00
24486;BME280;13449;49.374;8.584;2024-01-27T00:35:07;102532.41;;;-0.31;100.00
24486;BME280;13449;49.374;8.584;2024-01-27T00:37:35;102538.44;;;-0.30;100.00
24486;BME280;13449;49.374;8.584;2024-01-27T00:40:04;102532.38;;;-0.35;100.00
24486;BME280;13449;49.374;8.584;2024-01-27T00:42:35;102532.38;;;-0.38;100.00
24486;BME280;13449;49.374;8.584;2024-01-27T00:45:04;102533.25;;;-0.41;100.00
24486;BME280;13449;49.374;8.584;2024-01-27T00:47:31;102527.22;;;-0.41;100.00
24486;BME280;13449;49.374;8.584;2024-01-27T00:49:58;102534.97;;;-0.43;100.00
24486;BME280;13449;49.374;8.584;2024-01-27T00:52:24;102531.53;;;-0.37;100.00
24486;BME280;13449;49.374;8.584;2024-01-27T00:54:51;102534.09;;;-0.40;100.00
24486;BME280;13449;49.374;8.584;2024-01-27T00:57:20;102538.44;;;-0.44;100.00
24486;BME280;13449;49.374;8.584;2024-01-27T00:59:49;102538.44;;;-0.44;100.00
24486;BME280;13449;49.374;8.584;2024-01-27T01:02:15;102545.31;;;-0.46;100.00
24486;BME280;13449;49.374;8.584;2024-01-27T01:04:42;102546.16;;;-0.53;100.00
24486;BME280;13449;49.374;8.584;2024-01-27T01:07:09;102552.19;;;-0.57;100.00
24486;BME280;13449;49.374;8.584;2024-01-27T01:09:35;102548.75;;;-0.62;100.00
24486;BME280;13449;49.374;8.584;2024-01-27T01:12:02;102546.97;;;-0.66;100.00
24486;BME280;13449;49.374;8.584;2024-01-27T01:14:29;102552.16;;;-0.69;100.00
24486;BME280;13449;49.374;8.584;2024-01-27T01:16:55;102553.00;;;-0.73;100.00
24486;BME280;13449;49.374;8.584;2024-01-27T01:19:22;102552.13;;;-0.78;100.00
24486;BME280;13449;49.374;8.584;2024-01-27T01:21:49;102555.56;;;-0.79;100.00
24486;BME280;13449;49.374;8.584;2024-01-27T01:24:15;102564.22;;;-0.79;100.00
24486;BME280;13449;49.374;8.584;2024-01-27T01:26:42;102565.91;;;-0.82;100.00
24486;BME280;13449;49.374;8.584;2024-01-27T01:29:08;102570.22;;;-0.81;100.00
24486;BME280;13449;49.374;8.584;2024-01-27T01:31:37;102571.97;;;-0.77;100.00
24486;BME280;13449;49.374;8.584;2024-01-27T01:34:04;102581.44;;;-0.79;100.00
24486;BME280;13449;49.374;8.584;2024-01-27T01:36:30;102586.59;;;-0.82;100.00
24486;BME280;13449;49.374;8.584;2024-01-27T01:38:57;102595.28;;;-0.77;100.00
24486;BME280;13449;49.374;8.584;2024-01-27T01:41:26;102600.41;;;-0.83;100.00
24486;BME280;13449;49.374;8.584;2024-01-27T01:43:55;102592.63;;;-0.85;100.00
24486;BME280;13449;49.374;8.584;2024-01-27T01:46:22;102598.72;;;-0.77;100.00
24486;BME280;13449;49.374;8.584;2024-01-27T01:48:50;102596.13;;;-0.74;100.00
24486;BME280;13449;49.374;8.584;2024-01-27T01:51:17;102591.81;;;-0.73;100.00
24486;BME280;13449;49.374;8.584;2024-01-27T01:53:45;102602.19;;;-0.66;100.00
24486;BME280;13449;49.374;8.584;2024-01-27T01:56:14;102595.28;;;-0.71;100.00
24486;BME280;13449;49.374;8.584;2024-01-27T01:58:41;102583.19;;;-0.75;100.00
24486;BME280;13449;49.374;8.584;2024-01-27T02:01:12;102582.34;;;-0.76;100.00
24486;BME280;13449;49.374;8.584;2024-01-27T02:03:39;102583.19;;;-0.78;100.00
24486;BME280;13449;49.374;8.584;2024-01-27T02:06:06;102571.94;;;-0.82;100.00
24486;BME280;13449;49.374;8.584;2024-01-27T02:08:33;102577.09;;;-0.86;100.00
24486;BME280;13449;49.374;8.584;2024-01-27T02:10:59;102592.63;;;-0.88;100.00
24486;BME280;13449;49.374;8.584;2024-01-27T02:13:28;102591.75;;;-0.95;100.00
24486;BME280;13449;49.374;8.584;2024-01-27T02:15:55;102596.00;;;-0.97;100.00
24486;BME280;13449;49.374;8.584;2024-01-27T02:18:23;102596.88;;;-1.01;100.00
24486;BME280;13449;49.374;8.584;2024-01-27T02:20:50;102596.84;;;-1.04;100.00
24486;BME280;13449;49.374;8.584;2024-01-27T02:23:17;102605.50;;;-0.99;100.00
24486;BME280;13449;49.374;8.584;2024-01-27T02:25:43;102607.19;;;-1.04;100.00
24486;BME280;13449;49.374;8.584;2024-01-27T02:28:12;102612.34;;;-1.10;100.00
24486;BME280;13449;49.374;8.584;2024-01-27T02:30:39;102613.22;;;-1.08;100.00
24486;BME280;13449;49.374;8.584;2024-01-27T02:33:08;102617.47;;;-1.13;100.00
24486;BME280;13449;49.374;8.584;2024-01-27T02:35:35;102618.34;;;-1.12;100.00
24486;BME280;13449;49.374;8.584;2024-01-27T02:38:02;102620.91;;;-1.15;100.00
24486;BME280;13449;49.374;8.584;2024-01-27T02:40:28;102616.59;;;-1.18;100.00
24486;BME280;13449;49.374;8.584;2024-01-27T02:42:55;102625.22;;;-1.19;100.00
24486;BME280;13449;49.374;8.584;2024-01-27T02:45:21;102622.63;;;-1.16;100.00
24486;BME280;13449;49.374;8.584;2024-01-27T02:47:48;102621.84;;;-1.09;100.00
24486;BME280;13449;49.374;8.584;2024-01-27T02:50:17;102622.66;;;-1.13;100.00
24486;BME280;13449;49.374;8.584;2024-01-27T02:52:46;102618.31;;;-1.17;100.00
24486;BME280;13449;49.374;8.584;2024-01-27T02:55:15;102614.00;;;-1.18;100.00
24486;BME280;13449;49.374;8.584;2024-01-27T02:57:44;102613.97;;;-1.24;100.00
24486;BME280;13449;49.374;8.584;2024-01-27T03:00:11;102612.25;;;-1.25;100.00
24486;BME280;13449;49.374;8.584;2024-01-27T03:02:39;102605.31;;;-1.29;100.00
24486;BME280;13449;49.374;8.584;2024-01-27T03:05:06;102608.75;;;-1.33;100.00
24486;BME280;13449;49.374;8.584;2024-01-27T03:07:34;102608.75;;;-1.27;100.00
24486;BME280;13449;49.374;8.584;2024-01-27T03:10:00;102616.50;;;-1.33;100.00
24486;BME280;13449;49.374;8.584;2024-01-27T03:12:27;102612.19;;;-1.34;100.00
24486;BME280;13449;49.374;8.584;2024-01-27T03:14:54;102605.25;;;-1.38;100.00
24486;BME280;13449;49.374;8.584;2024-01-27T03:17:22;102606.13;;;-1.41;100.00
24486;BME280;13449;49.374;8.584;2024-01-27T03:19:49;102604.34;;;-1.43;100.00
24486;BME280;13449;49.374;8.584;2024-01-27T03:22:20;102602.69;;;-1.40;100.00
24486;BME280;13449;49.374;8.584;2024-01-27T03:24:46;102606.13;;;-1.41;100.00
24486;BME280;13449;49.374;8.584;2024-01-27T03:27:13;102623.28;;;-1.46;100.00
24486;BME280;13449;49.374;8.584;2024-01-27T03:29:40;102612.09;;;-1.46;100.00
24486;BME280;13449;49.374;8.584;2024-01-27T03:32:06;102610.38;;;-1.46;100.00
24486;BME280;13449;49.374;8.584;2024-01-27T03:34:33;102610.34;;;-1.52;100.00
24486;BME280;13449;49.374;8.584;2024-01-27T03:36:59;102612.91;;;-1.52;100.00
24486;BME280;13449;49.374;8.584;2024-01-27T03:39:26;102617.22;;;-1.53;100.00
24486;BME280;13449;49.374;8.584;2024-01-27T03:41:53;102618.06;;;-1.57;100.00
24486;BME280;13449;49.374;8.584;2024-01-27T03:44:19;102606.81;;;-1.60;100.00
24486;BME280;13449;49.374;8.584;2024-01-27T03:46:46;102607.66;;;-1.64;100.00
24486;BME280;13449;49.374;8.584;2024-01-27T03:49:15;102607.66;;;-1.60;100.00
24486;BME280;13449;49.374;8.584;2024-01-27T03:51:42;102611.09;;;-1.62;100.00
24486;BME280;13449;49.374;8.584;2024-01-27T03:54:08;102613.69;;;-1.64;100.00
24486;BME280;13449;49.374;8.584;2024-01-27T03:59:42;102611.94;;;-1.65;100.00
24486;BME280;13449;49.374;8.584;2024-01-27T04:02:09;102614.50;;;-1.68;100.00
24486;BME280;13449;49.374;8.584;2024-01-27T04:04:35;102617.94;;;-1.70;100.00
24486;BME280;13449;49.374;8.584;2024-01-27T04:07:02;102623.97;;;-1.73;100.00
24486;BME280;13449;49.374;8.584;2024-01-27T04:09:29;102630.84;;;-1.72;100.00
24486;BME280;13449;49.374;8.584;2024-01-27T04:11:56;102627.38;;;-1.74;100.00
24486;BME280;13449;49.374;8.584;2024-01-27T04:14:22;102634.22;;;-1.81;100.00
24486;BME280;13449;49.374;8.584;2024-01-27T04:16:49;102639.34;;;-1.82;100.00
24486;BME280;13449;49.374;8.584;2024-01-27T04:19:15;102639.47;;;-1.73;100.00
24486;BME280;13449;49.374;8.584;2024-01-27T04:21:42;102644.53;;;-1.82;100.00
24486;BME280;13449;49.374;8.584;2024-01-27T04:24:09;102641.94;;;-1.85;100.00
24486;BME280;13449;49.374;8.584;2024-01-27T04:26:36;102644.50;;;-1.85;100.00
24486;BME280;13449;49.374;8.584;2024-01-27T04:29:05;102653.94;;;-1.89;100.00
24486;BME280;13449;49.374;8.584;2024-01-27T04:31:39;102653.09;;;-1.89;100.00
24486;BME280;13449;49.374;8.584;2024-01-27T04:34:06;102653.94;;;-1.89;100.00
24486;BME280;13449;49.374;8.584;2024-01-27T04:36:33;102647.91;;;-1.89;100.00
24486;BME280;13449;49.374;8.584;2024-01-27T04:38:59;102659.91;;;-1.94;100.00
24486;BME280;13449;49.374;8.584;2024-01-27T04:41:26;102654.72;;;-1.97;100.00
24486;BME280;13449;49.374;8.584;2024-01-27T04:43:52;102653.84;;;-1.99;100.00
24486;BME280;13449;49.374;8.584;2024-01-27T04:46:19;102653.81;;;-2.02;100.00
24486;BME280;13449;49.374;8.584;2024-01-27T04:48:46;102661.59;;;-1.99;100.00
24486;BME280;13449;49.374;8.584;2024-01-27T04:51:13;102655.56;;;-1.97;100.00
24486;BME280;13449;49.374;8.584;2024-01-27T04:53:43;102662.41;;;-2.02;100.00
24486;BME280;13449;49.374;8.584;2024-01-27T04:56:14;102658.16;;;-1.95;100.00
24486;BME280;13449;49.374;8.584;2024-01-27T04:58:41;102661.63;;;-1.93;100.00
24486;BME280;13449;49.374;8.584;2024-01-27T05:01:09;102661.59;;;-1.96;100.00
24486;BME280;13449;49.374;8.584;2024-01-27T05:03:36;102659.88;;;-1.97;100.00
24486;BME280;13449;49.374;8.584;2024-01-27T05:06:03;102655.56;;;-1.97;100.00
24486;BME280;13449;49.374;8.584;2024-01-27T05:08:30;102659.94;;;-1.91;100.00
24486;BME280;13449;49.374;8.584;2024-01-27T05:10:57;102662.47;;;-1.97;100.00
24486;BME280;13449;49.374;8.584;2024-01-27T05:13:24;102662.47;;;-1.94;100.00
24486;BME280;13449;49.374;8.584;2024-01-27T05:15:53;102656.44;;;-1.96;100.00
24486;BME280;13449;49.374;8.584;2024-01-27T05:18:20;102661.66;;;-1.90;100.00
24486;BME280;13449;49.374;8.584;2024-01-27T05:20:49;102653.97;;;-1.87;100.00
24486;BME280;13449;49.374;8.584;2024-01-27T05:23:16;102653.97;;;-1.86;100.00
24486;BME280;13449;49.374;8.584;2024-01-27T05:25:45;102647.91;;;-1.89;100.00
24486;BME280;13449;49.374;8.584;2024-01-27T05:28:11;102656.47;;;-1.93;100.00
24486;BME280;13449;49.374;8.584;2024-01-27T05:30:38;102663.41;;;-1.89;100.00
24486;BME280;13449;49.374;8.584;2024-01-27T05:33:04;102659.94;;;-1.91;100.00
24486;BME280;13449;49.374;8.584;2024-01-27T05:35:31;102657.34;;;-1.91;100.00
24486;BME280;13449;49.374;8.584;2024-01-27T05:38:00;102659.91;;;-1.93;100.00
24486;BME280;13449;49.374;8.584;2024-01-27T05:40:29;102663.31;;;-1.98;100.00
24486;BME280;13449;49.374;8.584;2024-01-27T05:42:55;102663.28;;;-2.03;100.00
24486;BME280;13449;49.374;8.584;2024-01-27T05:45:22;102662.34;;;-2.08;100.00
24486;BME280;13449;49.374;8.584;2024-01-27T05:47:49;102665.78;;;-2.09;100.00
24486;BME280;13449;49.374;8.584;2024-01-27T05:50:19;102671.78;;;-2.12;100.00
24486;BME280;13449;49.374;8.584;2024-01-27T05:52:46;102679.50;;;-2.13;100.00
24486;BME280;13449;49.374;8.584;2024-01-27T05:55:12;102666.59;;;-2.12;100.00
24486;BME280;13449;49.374;8.584;2024-01-27T05:57:42;102663.16;;;-2.14;100.00
24486;BME280;13449;49.374;8.584;2024-01-27T06:00:10;102664.88;;;-2.13;100.00
24486;BME280;13449;49.374;8.584;2024-01-27T06:02:37;102666.59;;;-2.12;100.00
24486;BME280;13449;49.374;8.584;2024-01-27T06:05:03;102664.88;;;-2.11;100.00
24486;BME280;13449;49.374;8.584;2024-01-27T06:07:30;102673.47;;;-2.14;100.00
24486;BME280;13449;49.374;8.584;2024-01-27T06:09:57;102679.47;;;-2.16;100.00
24486;BME280;13449;49.374;8.584;2024-01-27T06:12:23;102678.63;;;-2.17;100.00
24486;BME280;13449;49.374;8.584;2024-01-27T06:14:50;102667.47;;;-2.13;100.00
24486;BME280;13449;49.374;8.584;2024-01-27T06:17:16;102668.34;;;-2.11;100.00
24486;BME280;13449;49.374;8.584;2024-01-27T06:19:43;102673.50;;;-2.11;100.00
24486;BME280;13449;49.374;8.584;2024-01-27T06:22:12;102676.91;;;-2.15;100.00
24486;BME280;13449;49.374;8.584;2024-01-27T06:24:43;102686.38;;;-2.15;100.00
24486;BME280;13449;49.374;8.584;2024-01-27T06:27:11;102676.88;;;-2.18;100.00
24486;BME280;13449;49.374;8.584;2024-01-27T06:29:38;102674.28;;;-2.19;100.00
24486;BME280;13449;49.374;8.584;2024-01-27T06:32:06;102683.78;;;-2.17;100.00
24486;BME280;13449;49.374;8.584;2024-01-27T06:34:36;102678.59;;;-2.20;100.00
24486;BME280;13449;49.374;8.584;2024-01-27T06:37:03;102671.63;;;-2.24;100.00
24486;BME280;13449;49.374;8.584;2024-01-27T06:39:30;102681.16;;;-2.20;100.00
24486;BME280;13449;49.374;8.584;2024-01-27T06:41:59;102675.09;;;-2.22;100.00
24486;BME280;13449;49.374;8.584;2024-01-27T06:44:28;102671.69;;;-2.21;100.00
24486;BME280;13449;49.374;8.584;2024-01-27T06:46:54;102677.72;;;-2.19;100.00
24486;BME280;13449;49.374;8.584;2024-01-27T06:49:21;102681.13;;;-2.21;100.00
24486;BME280;13449;49.374;8.584;2024-01-27T06:51:48;102672.50;;;-2.22;100.00
24486;BME280;13449;49.374;8.584;2024-01-27T06:54:14;102682.03;;;-2.18;100.00
24486;BME280;13449;49.374;8.584;2024-01-27T06:56:44;102675.16;;;-2.19;100.00
24486;BME280;13449;49.374;8.584;2024-01-27T06:59:11;102679.44;;;-2.19;100.00
24486;BME280;13449;49.374;8.584;2024-01-27T07:01:39;102678.59;;;-2.18;100.00
24486;BME280;13449;49.374;8.584;2024-01-27T07:04:13;102678.59;;;-2.20;100.00
24486;BME280;13449;49.374;8.584;2024-01-27T07:06:40;102682.88;;;-2.20;100.00
24486;BME280;13449;49.374;8.584;2024-01-27T07:09:07;102686.34;;;-2.18;100.00
24486;BME280;13449;49.374;8.584;2024-01-27T07:11:35;102683.78;;;-2.17;100.00
24486;BME280;13449;49.374;8.584;2024-01-27T07:14:07;102693.25;;;-2.16;100.00
24486;BME280;13449;49.374;8.584;2024-01-27T07:16:36;102687.28;;;-2.10;100.00
24486;BME280;13449;49.374;8.584;2024-01-27T07:19:03;102685.53;;;-2.13;100.00
24486;BME280;13449;49.374;8.584;2024-01-27T07:21:30;102676.91;;;-2.15;100.00
24486;BME280;13449;49.374;8.584;2024-01-27T07:23:59;102690.69;;;-2.13;100.00
24486;BME280;13449;49.374;8.584;2024-01-27T07:26:25;102699.50;;;-1.94;100.00
24486;BME280;13449;49.374;8.584;2024-01-27T07:28:52;102696.16;;;-1.88;100.00
24486;BME280;13449;49.374;8.584;2024-01-27T07:31:18;102695.31;;;-1.83;100.00
24486;BME280;13449;49.374;8.584;2024-01-27T07:33:47;102689.34;;;-1.77;100.00
24486;BME280;13449;49.374;8.584;2024-01-27T07:36:15;102697.06;;;-1.80;100.00
24486;BME280;13449;49.374;8.584;2024-01-27T07:38:41;102691.03;;;-1.82;100.00
24486;BME280;13449;49.374;8.584;2024-01-27T07:41:08;102700.63;;;-1.69;100.00
24486;BME280;13449;49.374;8.584;2024-01-27T07:43:37;102696.50;;;-1.52;100.00
24486;BME280;13449;49.374;8.584;2024-01-27T07:46:03;102690.50;;;-1.43;100.00
24486;BME280;13449;49.374;8.584;2024-01-27T07:48:30;102686.16;;;-1.48;100.00
24486;BME280;13449;49.374;8.584;2024-01-27T07:50:57;102684.47;;;-1.46;100.00
24486;BME280;13449;49.374;8.584;2024-01-27T07:53:24;102682.72;;;-1.51;100.00
24486;BME280;13449;49.374;8.584;2024-01-27T07:55:50;102689.56;;;-1.56;100.00
24486;BME280;13449;49.374;8.584;2024-01-27T07:58:22;102689.56;;;-1.56;100.00
24486;BME280;13449;49.374;8.584;2024-01-27T08:00:49;102687.91;;;-1.46;100.00
24486;BME280;13449;49.374;8.584;2024-01-27T08:03:15;102686.16;;;-1.48;100.00
24486;BME280;13449;49.374;8.584;2024-01-27T08:05:44;102682.81;;;-1.41;100.00
24486;BME280;13449;49.374;8.584;2024-01-27T08:08:14;102674.22;;;-1.34;100.00
24486;BME280;13449;49.374;8.584;2024-01-27T08:10:41;102685.47;;;-1.29;100.00
24486;BME280;13449;49.374;8.584;2024-01-27T08:13:07;102694.13;;;-1.26;100.00
24486;BME280;13449;49.374;8.584;2024-01-27T08:15:38;102696.75;;;-1.18;100.00
24486;BME280;13449;49.374;8.584;2024-01-27T08:18:05;102697.72;;;-1.05;100.00
24486;BME280;13449;49.374;8.584;2024-01-27T08:20:32;102696.84;;;-1.06;100.00
24486;BME280;13449;49.374;8.584;2024-01-27T08:22:58;102695.16;;;-0.99;100.00
24486;BME280;13449;49.374;8.584;2024-01-27T08:25:25;102695.25;;;-0.88;100.00
24486;BME280;13449;49.374;8.584;2024-01-27T08:27:51;102695.25;;;-0.85;100.00
24486;BME280;13449;49.374;8.584;2024-01-27T08:30:18;102694.47;;;-0.78;100.00
24486;BME280;13449;49.374;8.584;2024-01-27T08:32:45;102700.50;;;-0.73;100.00
24486;BME280;13449;49.374;8.584;2024-01-27T08:35:12;102710.91;;;-0.64;100.00
24486;BME280;13449;49.374;8.584;2024-01-27T08:37:38;102711.88;;;-0.47;100.00
24486;BME280;13449;49.374;8.584;2024-01-27T08:40:07;102709.31;;;-0.41;100.00
24486;BME280;13449;49.374;8.584;2024-01-27T08:42:34;102716.28;;;-0.31;100.00
24486;BME280;13449;49.374;8.584;2024-01-27T08:45:01;102719.75;;;-0.16;100.00
24486;BME280;13449;49.374;8.584;2024-01-27T08:47:28;102726.66;;;-0.21;100.00
24486;BME280;13449;49.374;8.584;2024-01-27T08:49:54;102717.16;;;-0.16;100.00
24486;BME280;13449;49.374;8.584;2024-01-27T08:52:21;102719.81;;;-0.07;100.00
24486;BME280;13449;49.374;8.584;2024-01-27T08:54:47;102724.13;;;-0.02;100.00
24486;BME280;13449;49.374;8.584;2024-01-27T08:57:16;102729.38;;;0.20;100.00
24486;BME280;13449;49.374;8.584;2024-01-27T08:59:43;102734.56;;;0.20;100.00
24486;BME280;13449;49.374;8.584;2024-01-27T09:02:12;102738.03;;;0.29;100.00
24486;BME280;13449;49.374;8.584;2024-01-27T09:04:38;102736.34;;;0.35;100.00
24486;BME280;13449;49.374;8.584;2024-01-27T09:07:07;102744.13;;;0.44;100.00
24486;BME280;13449;49.374;8.584;2024-01-27T09:09:34;102744.13;;;0.44;100.00
24486;BME280;13449;49.374;8.584;2024-01-27T09:12:01;102740.69;;;0.57;100.00
24486;BME280;13449;49.374;8.584;2024-01-27T09:14:27;102752.78;;;0.76;100.00
24486;BME280;13449;49.374;8.584;2024-01-27T09:16:54;102756.25;;;0.68;100.00
24486;BME280;13449;49.374;8.584;2024-01-27T09:19:21;102760.56;;;0.78;100.00
24486;BME280;13449;49.374;8.584;2024-01-27T09:21:48;102763.19;;;0.82;100.00
24486;BME280;13449;49.374;8.584;2024-01-27T09:24:15;102758.84;;;0.92;100.00
24486;BME280;13449;49.374;8.584;2024-01-27T09:26:42;102761.47;;;1.15;100.00
24486;BME280;13449;49.374;8.584;2024-01-27T09:29:08;102768.38;;;1.19;100.00
24486;BME280;13449;49.374;8.584;2024-01-27T09:31:37;102771.78;;;1.39;100.00
24486;BME280;13449;49.374;8.584;2024-01-27T09:34:04;102776.13;;;1.34;100.00
24486;BME280;13449;49.374;8.584;2024-01-27T09:36:30;102776.13;;;1.48;100.00
24486;BME280;13449;49.374;8.584;2024-01-27T09:38:57;102775.25;;;1.50;100.00
24486;BME280;13449;49.374;8.584;2024-01-27T09:41:30;102778.69;;;1.59;100.00
24486;BME280;13449;49.374;8.584;2024-01-27T09:44:00;102784.72;;;1.70;100.00
24486;BME280;13449;49.374;8.584;2024-01-27T09:46:29;102788.19;;;1.75;100.00
24486;BME280;13449;49.374;8.584;2024-01-27T09:48:56;102784.72;;;1.77;100.00
24486;BME280;13449;49.374;8.584;2024-01-27T09:51:24;102783.78;;;1.95;100.00
24486;BME280;13449;49.374;8.584;2024-01-27T09:53:52;102785.47;;;1.99;100.00
24486;BME280;13449;49.374;8.584;2024-01-27T09:56:20;102783.72;;;2.10;100.00
24486;BME280;13449;49.374;8.584;2024-01-27T09:58:49;102792.31;;;2.25;100.00
24486;BME280;13449;49.374;8.584;2024-01-27T10:01:16;102794.06;;;2.23;100.00
24486;BME280;13449;49.374;8.584;2024-01-27T10:03:46;102790.56;;;2.27;100.00
24486;BME280;13449;49.374;8.584;2024-01-27T10:06:13;102792.19;;;2.46;100.00
24486;BME280;13449;49.374;8.584;2024-01-27T10:08:45;102790.50;;;2.39;100.00
24486;BME280;13449;49.374;8.584;2024-01-27T10:11:18;102784.34;;;2.54;100.00
24486;BME280;13449;49.374;8.584;2024-01-27T10:13:54;102782.50;;;2.68;100.00
24486;BME280;13449;49.374;8.584;2024-01-27T10:16:25;102778.16;;;2.72;100.00
24486;BME280;13449;49.374;8.584;2024-01-27T10:19:01;102782.47;;;2.74;100.00
24486;BME280;13449;49.374;8.584;2024-01-27T10:21:29;102778.91;;;2.83;100.00
24486;BME280;13449;49.374;8.584;2024-01-27T10:24:00;102777.19;;;2.82;100.00
24486;BME280;13449;49.374;8.584;2024-01-27T10:26:30;102785.84;;;2.87;100.00
24486;BME280;13449;49.374;8.584;2024-01-27T10:28:57;102778.94;;;2.86;100.00
24486;BME280;13449;49.374;8.584;2024-01-27T10:31:28;102777.94;;;2.96;100.00
24486;BME280;13449;49.374;8.584;2024-01-27T10:33:56;102772.69;;;3.05;100.00
24486;BME280;13449;49.374;8.584;2024-01-27T10:36:24;102773.47;;;3.12;100.00
24486;BME280;13449;49.374;8.584;2024-01-27T10:38:50;102768.16;;;3.24;100.00
24486;BME280;13449;49.374;8.584;2024-01-27T10:41:22;102768.97;;;3.34;100.00
24486;BME280;13449;49.374;8.584;2024-01-27T10:43:50;102769.72;;;3.42;100.00
24486;BME280;13449;49.374;8.584;2024-01-27T10:46:21;102770.66;;;3.36;100.00
24486;BME280;13449;49.374;8.584;2024-01-27T10:48:53;102774.88;;;3.49;100.00
24486;BME280;13449;49.374;8.584;2024-01-27T10:51:33;102773.94;;;3.55;100.00
24486;BME280;13449;49.374;8.584;2024-01-27T10:54:02;102767.09;;;3.48;100.00
24486;BME280;13449;49.374;8.584;2024-01-27T10:56:31;102754.91;;;3.47;100.00
24486;BME280;13449;49.374;8.584;2024-01-27T10:58:59;102756.59;;;3.54;100.00
24486;BME280;13449;49.374;8.584;2024-01-27T11:01:29;102742.69;;;3.53;100.00
24486;BME280;13449;49.374;8.584;2024-01-27T11:04:01;102734.72;;;3.67;100.00
24486;BME280;13449;49.374;8.584;2024-01-27T11:06:31;102721.75;;;3.61;100.00
24486;BME280;13449;49.374;8.584;2024-01-27T11:09:02;102718.09;;;3.76;100.00
24486;BME280;13449;49.374;8.584;2024-01-27T11:11:30;102706.53;;;3.97;100.00
24486;BME280;13449;49.374;8.584;2024-01-27T11:13:57;102687.63;;;3.81;100.00
24486;BME280;13449;49.374;8.584;2024-01-27T11:16:26;102660.66;;;3.83;100.00
24486;BME280;13449;49.374;8.584;2024-01-27T11:18:55;102641.59;;;3.78;100.00
24486;BME280;13449;49.374;8.584;2024-01-27T11:21:21;102624.22;;;3.77;100.00
24486;BME280;13449;49.374;8.584;2024-01-27T11:23:48;102606.78;;;3.84;100.00
24486;BME280;13449;49.374;8.584;2024-01-27T11:26:22;102597.19;;;3.84;100.00
24486;BME280;13449;49.374;8.584;2024-01-27T11:28:53;102583.34;;;3.81;100.00
24486;BME280;13449;49.374;8.584;2024-01-27T11:31:35;102576.16;;;3.97;100.00
24486;BME280;13449;49.374;8.584;2024-01-27T11:34:01;102582.03;;;4.62;100.00
24486;BME280;13449;49.374;8.584;2024-01-27T11:36:32;102573.69;;;4.40;100.00
24486;BME280;13449;49.374;8.584;2024-01-27T11:38:59;102565.06;;;4.36;100.00
24486;BME280;13449;49.374;8.584;2024-01-27T11:41:28;102557.28;;;4.33;100.00
24486;BME280;13449;49.374;8.584;2024-01-27T11:43:57;102557.09;;;4.45;100.00
24486;BME280;13449;49.374;8.584;2024-01-27T11:46:26;102550.97;;;4.46;100.00
24486;BME280;13449;49.374;8.584;2024-01-27T11:48:53;102540.50;;;4.94;100.00
24486;BME280;13449;49.374;8.584;2024-01-27T11:51:20;102530.28;;;4.82;100.00
24486;BME280;13449;49.374;8.584;2024-01-27T11:53:46;102523.50;;;4.72;100.00
24486;BME280;13449;49.374;8.584;2024-01-27T11:56:15;102525.38;;;4.67;100.00
24486;BME280;13449;49.374;8.584;2024-01-27T11:58:49;102515.69;;;4.72;100.00
24486;BME280;13449;49.374;8.584;2024-01-27T12:01:16;102496.63;;;4.68;100.00
24486;BME280;13449;49.374;8.584;2024-01-27T12:03:48;102495.75;;;4.68;100.00
24486;BME280;13449;49.374;8.584;2024-01-27T12:06:15;102488.75;;;4.70;100.00
24486;BME280;13449;49.374;8.584;2024-01-27T12:08:44;102485.25;;;4.71;100.00
24486;BME280;13449;49.374;8.584;2024-01-27T12:11:16;102490.06;;;4.92;100.00
24486;BME280;13449;49.374;8.584;2024-01-27T12:13:49;102482.22;;;4.92;100.00
24486;BME280;13449;49.374;8.584;2024-01-27T12:16:16;102480.50;;;4.91;100.00
24486;BME280;13449;49.374;8.584;2024-01-27T12:18:45;102470.13;;;4.87;100.00
24486;BME280;13449;49.374;8.584;2024-01-27T12:21:19;102477.81;;;4.94;100.00
24486;BME280;13449;49.374;8.584;2024-01-27T12:23:56;102484.84;;;4.92;100.00
24486;BME280;13449;49.374;8.584;2024-01-27T12:26:27;102488.25;;;4.94;100.00
24486;BME280;13449;49.374;8.584;2024-01-27T12:28:55;102484.69;;;4.98;100.00
24486;BME280;13449;49.374;8.584;2024-01-27T12:31:25;102496.19;;;4.90;100.00
24486;BME280;13449;49.374;8.584;2024-01-27T12:33:58;102495.00;;;5.06;100.00
24486;BME280;13449;49.374;8.584;2024-01-27T12:36:26;102482.81;;;5.05;100.00
24486;BME280;13449;49.374;8.584;2024-01-27T12:39:01;102489.91;;;4.98;100.00
24486;BME280;13449;49.374;8.584;2024-01-27T12:41:29;102492.34;;;5.07;100.00
24486;BME280;13449;49.374;8.584;2024-01-27T12:43:56;102486.41;;;4.99;100.00
24486;BME280;13449;49.374;8.584;2024-01-27T12:46:25;102492.38;;;5.06;100.00
24486;BME280;13449;49.374;8.584;2024-01-27T12:48:54;102500.09;;;5.10;100.00